Warsaw, MO (65355)

10:35 AM CST on November 23, 2014 (GMT -0600)
cole camp Lincoln | Change Station
CLOSE
Current Station
Personal Weather Station
Location: Cole Camp, MO
Elevation: 905 ft
Nearby Weather Stations

Elev 905 ft 38.40 °N, 93.20 °W | Updated 9 minutes ago

Overcast
Overcast
54.9 °F
Feels Like 54.9 °F
N
0.0
Wind Variable Wind from SW
Gusts 0.0 mph

Today
High -- | Low -- °F
--% Chance of Precip.
Yesterday
High -- | Low -- °F
Precip. -- in
7:03 AM 4:56 PM
New Moon, 2% visible
Pressure 29.49 in
Visibility 6.0 miles
Clouds Few 600 ft
Overcast 1500 ft
Dew Point 53 °F
Humidity 94%
Rainfall 0.31 in
Snow Depth Not available.
UV 1 out of 12
Pollen .40 out of 12
Air Quality Not available.
Flu Activity Not available.
METAR KGLY 231635Z AUTO 15007KT 6SM BR FEW006 OVC015 13/13 A2949 RMK AO2

More Conditions Fewer Conditions

Pressure 29.49 in
Visibility 6.0 miles
Clouds Few 600 ft
Overcast 1500 ft
Dew Point 53 °F
Humidity 94%
Rainfall 0.31 in
Snow Depth Not available.
UV 1 out of 12
Pollen .40 out of 12
Air Quality Not available.
Flu Activity Not available.
METAR KGLY 231635Z AUTO 15007KT 6SM BR FEW006 OVC015 13/13 A2949 RMK AO2

More Conditions Fewer Conditions

10-Day Weather Forecast

Almanac

Astronomy

Nov. 23, 2014 Rise Set
Actual Time
Civil Twilight
Nautical Twilight
Astronomical Twilight
Moon
Length of Visible Light
Length of Day
Tomorrow will be .
, % of the Moon is Illuminated

Today's Extremes

State Highs State Lows

Community

WunderPhotos

Upload Photos

1,773,092 photos uploaded!

WunderBlogs® & News

Nearby

Air Quality

  Air Quality AQ Index Pollutant
Not available.

Snow Depth

Station Depth Elevation

Earthquake Activity

City Distance Mag. Time & Date
Minimum magnitude displayed is 2.5.

Coastal Water Temperatures

Place Temperature

Nearby Weather Stations